Date,TemperatureHighF,TemperatureAvgF,TemperatureLowF,DewpointHighF,DewpointAvgF,DewpointLowF,HumidityHigh,HumidityAvg,HumidityLow,PressureMaxIn,PressureMinIn,WindSpeedMaxMPH,WindSpeedAvgMPH,GustSpeedMaxMPH,PrecipitationSumIn
2012-1-1,56,34,21,21,16,10,79,53,19,30.66,30.32,0,0,0,0.00
2012-1-2,54,33,19,23,17,13,84,58,21,30.79,30.50,4,0,0,0.00
2012-1-3,55,34,18,23,19,14,87,59,23,30.64,30.27,2,0,0,0.00
2012-1-4,58,36,23,26,21,17,82,60,21,30.63,30.31,1,0,0,0.00
2012-1-5,58,35,20,25,18,14,87,57,18,30.54,30.08,5,0,0,0.00
2012-1-6,60,34,20,23,19,15,84,59,19,30.21,29.96,0,0,0,0.00
2012-1-7,58,36,21,25,21,17,87,61,25,30.15,29.83,6,0,0,0.00
2012-1-8,46,35,26,33,25,21,84,69,50,30.23,29.88,5,0,0,0.00
2012-1-9,50,36,25,26,22,15,85,60,25,30.36,30.14,2,0,0,0.00
2012-1-10,55,36,20,24,20,16,86,57,27,30.34,29.98,0,0,0,0.00
2012-1-11,52,39,21,25,15,7,86,45,19,30.13,29.90,14,2,0,0.00
2012-1-12,45,32,18,11,4,-6,72,35,12,30.30,30.04,8,0,0,0.00
2012-1-13,51,30,13,9,5,-1,70,40,12,30.48,30.18,3,0,0,0.00
2012-1-14,54,32,16,14,9,4,70,44,15,30.58,30.25,2,0,0,0.00
2012-1-15,53,35,17,31,16,9,74,50,21,30.36,29.93,5,0,0,0.00
2012-1-16,57,45,35,38,29,22,87,58,31,29.96,29.67,12,1,0,0.01
2012-1-17,53,37,26,26,20,17,82,55,25,30.29,29.96,5,0,0,0.00
2012-1-18,57,36,19,22,18,14,83,54,22,30.40,30.05,2,0,0,0.00
2012-1-19,65,41,26,25,22,19,76,52,20,30.17,29.82,2,0,0,0.00
2012-1-20,62,40,25,26,19,11,80,50,14,30.07,29.79,10,0,0,0.00
2012-1-21,59,41,22,34,21,16,79,49,23,30.11,29.49,6,0,0,0.01
2012-1-22,50,41,28,31,17,7,75,40,19,30.11,29.49,12,2,0,0.00
2012-1-23,54,36,19,21,15,13,80,48,20,30.20,29.81,0,0,0,0.00
2012-1-24,50,40,35,37,28,21,89,64,42,30.11,29.71,10,1,0,0.14
2012-1-25,54,41,30,28,22,16,75,50,24,30.20,30.05,6,0,0,0.00
2012-1-26,58,38,25,26,22,19,80,57,27,30.29,29.90,2,0,0,0.00
2012-1-27,56,40,27,28,18,7,82,48,14,30.21,29.87,12,1,0,0.00
2012-1-28,55,39,23,22,11,0,79,38,11,30.48,30.18,7,0,0,0.00
2012-1-29,57,37,20,17,9,4,67,37,13,30.50,30.21,2,0,0,0.00
2012-1-30,60,36,20,19,15,11,78,47,15,30.30,29.91,4,0,0,0.00
2012-1-31,57,41,25,22,17,13,71,44,18,30.17,29.96,2,0,0,0.00
2012-2-1,59,42,23,24,18,10,84,43,15,30.33,29.95,2,0,0,0.00
2012-2-2,54,42,33,28,19,10,71,43,19,29.95,29.69,6,0,0,0.00
2012-2-3,49,38,31,33,27,21,88,67,35,30.18,29.78,3,0,0,0.07
2012-2-4,51,38,25,25,19,13,81,51,24,30.33,30.14,8,0,0,0.00
2012-2-5,48,38,31,21,18,17,60,46,29,30.36,30.12,3,0,0,0.00
2012-2-6,52,38,22,27,20,15,76,51,29,30.23,29.94,5,0,0,0.00
2012-2-7,38,33,24,25,23,19,79,68,61,30.28,30.02,3,1,0,0.00
2012-2-8,56,49,42,27,22,18,53,35,25,30.26,30.10,2,0,0,0.00
2012-2-9,57,46,38,35,24,15,83,47,22,30.11,29.91,11,1,0,0.01
2012-2-10,59,41,25,27,22,19,82,49,22,30.28,30.03,5,0,0,0.00
2012-2-11,58,39,24,24,21,18,81,52,25,30.25,29.95,5,0,0,0.00
2012-2-12,43,34,23,33,22,15,86,65,45,30.18,29.82,2,0,0,0.01
2012-2-13,52,41,28,33,27,21,90,63,30,29.91,29.75,3,0,0,0.00
2012-2-14,56,39,28,32,26,21,87,62,29,29.84,29.61,7,0,0,0.04
2012-2-15,50,37,28,31,25,18,88,67,30,30.08,29.74,3,0,0,0.10
2012-2-16,53,38,26,26,22,17,81,55,28,30.17,29.97,1,0,0,0.00
2012-2-17,59,41,26,29,22,15,84,52,20,30.11,29.80,6,0,0,0.00
2012-2-18,50,29,24,25,16,-100,82,65,25,30.09,29.94,0,0,0,0.00
2012-2-19,55,38,24,27,20,14,69,51,26,30.00,29.64,13,0,0,0.00
2012-2-20,47,37,25,26,6,-8,63,32,10,30.19,29.71,14,2,0,0.00
2012-2-21,61,38,18,14,8,6,69,35,12,30.32,29.98,7,0,0,0.00
2012-2-22,66,47,29,26,19,11,60,36,18,30.13,29.70,7,0,0,0.00
2012-2-23,69,45,28,26,17,-1,75,39,15,29.93,29.53,11,1,0,0.00
2012-2-24,59,40,25,17,5,-2,63,28,9,30.29,29.92,5,0,0,0.00
2012-2-25,66,43,21,18,12,3,60,32,14,30.28,29.76,6,0,0,0.00
2012-2-26,65,49,30,17,10,2,56,24,9,29.96,29.71,10,0,0,0.00
2012-2-27,63,49,33,25,16,5,44,27,17,30.10,29.63,6,1,0,0.00
2012-2-28,51,44,29,27,16,4,52,34,16,30.11,29.54,10,2,0,0.00
2012-2-29,59,39,21,19,14,10,70,41,15,30.30,29.90,5,0,0,0.00
2012-3-1,63,43,29,27,12,2,61,33,9,29.94,29.56,12,2,0,0.00
2012-3-2,44,35,26,19,10,-5,69,39,15,30.19,29.68,14,3,0,0.00
2012-3-3,51,35,19,9,5,1,51,31,15,30.41,30.18,14,2,0,0.00
2012-3-4,64,45,23,18,14,10,64,33,16,30.39,30.08,10,1,0,0.00
2012-3-5,69,47,26,20,16,12,64,34,12,30.26,29.86,3,0,0,0.00
2012-3-6,69,49,34,19,11,4,51,24,9,29.89,29.49,6,0,0,0.00
2012-3-7,69,49,30,28,9,-2,60,24,6,29.79,29.40,14,2,0,0.00
2012-3-8,52,43,36,27,20,14,64,41,27,30.42,29.75,11,1,0,0.00
2012-3-9,47,39,32,26,20,13,62,47,30,30.51,30.18,3,0,0,0.00
2012-3-10,45,40,36,31,25,21,83,55,44,30.18,29.90,2,0,0,0.03
2012-3-11,67,47,31,36,26,10,90,54,12,29.95,29.70,7,0,0,0.13
2012-3-12,70,48,28,26,18,10,81,39,10,30.11,29.82,2,0,0,0.00
2012-3-13,74,50,29,20,14,5,64,32,7,30.10,29.80,4,0,0,0.00
2012-3-14,76,52,28,21,12,1,63,28,6,30.11,29.85,2,0,0,0.00
2012-3-15,77,53,30,19,10,2,48,22,6,30.18,29.85,3,0,0,0.00
2012-3-16,78,52,29,20,12,4,58,27,6,30.06,29.68,3,0,0,0.00
2012-3-17,76,57,33,13,9,6,42,18,7,29.87,29.51,6,0,0,0.00
2012-3-18,65,52,41,28,21,12,51,32,19,29.59,29.30,16,2,0,0.00
2012-3-19,47,39,31,21,14,0,58,39,14,29.78,29.54,8,1,0,0.00
2012-3-20,55,42,29,19,11,-3,62,33,10,29.93,29.73,14,2,0,0.00
2012-3-21,67,49,26,19,13,7,55,26,13,30.05,29.69,8,1,0,0.00
2012-3-22,75,56,32,23,18,7,61,27,9,29.92,29.64,2,0,0,0.00
2012-3-23,80,56,30,28,18,12,59,28,9,30.05,29.77,1,0,0,0.00
2012-3-24,80,57,36,24,19,13,54,27,10,30.03,29.78,3,0,0,0.00
2012-3-25,85,62,36,24,19,16,54,24,8,29.96,29.61,7,1,0,0.00
2012-3-26,83,66,50,25,14,0,35,16,5,29.72,29.50,10,1,0,0.00
2012-3-27,79,54,36,24,16,6,59,26,6,29.95,29.67,1,0,0,0.00
2012-3-28,80,54,32,21,13,4,57,25,7,30.04,29.70,2,0,0,0.00
2012-3-29,79,57,34,22,15,10,59,24,8,29.93,29.68,8,0,0,0.00
2012-3-30,82,59,36,26,19,12,63,26,9,29.90,29.66,3,0,0,0.00
2012-3-31,84,63,39,28,21,11,61,25,9,29.89,29.54,3,0,0,0.00
2012-4-1,83,63,39,28,17,4,65,22,5,29.65,29.28,8,1,0,0.00
2012-4-2,60,47,39,36,23,11,87,44,16,29.74,29.34,9,1,0,0.18
2012-4-3,50,39,33,38,34,30,90,83,57,30.06,29.68,1,0,0,0.58
2012-4-4,70,49,32,42,35,29,90,64,28,30.04,29.69,1,0,0,0.00
2012-4-5,76,57,38,40,32,21,87,49,13,29.84,29.59,1,0,0,0.00
2012-4-6,78,58,39,36,19,-4,81,36,4,29.83,29.64,5,0,0,0.00
2012-4-7,72,59,43,18,7,0,28,14,6,30.11,29.77,7,0,0,0.00
2012-4-8,77,62,46,39,27,14,49,28,15,30.16,29.87,2,0,0,0.00
2012-4-9,82,60,46,48,38,30,67,48,16,29.99,29.79,3,0,0,0.09
2012-4-10,82,61,42,41,36,27,87,48,14,29.98,29.66,19,1,0,0.00
2012-4-11,83,67,48,43,33,15,73,35,12,29.83,29.47,8,1,0,0.00
2012-4-12,69,58,46,32,22,7,58,27,11,29.73,29.51,7,0,0,0.00
2012-4-13,73,59,42,21,12,2,36,18,7,29.81,29.42,5,0,0,0.00
2012-4-14,65,52,38,23,17,10,47,27,12,29.67,29.31,20,2,0,0.00
2012-4-15,63,47,30,23,19,14,68,35,17,29.92,29.65,12,1,0,0.00
2012-4-16,69,52,33,29,21,11,76,36,12,30.12,29.92,7,0,0,0.00
2012-4-17,77,56,34,26,20,17,59,30,11,30.16,29.79,2,0,0,0.00
2012-4-18,84,61,37,28,20,8,67,27,7,29.98,29.60,6,0,0,0.00
2012-4-19,76,65,53,34,26,16,43,24,15,29.74,29.57,6,0,0,0.00
2012-4-20,80,63,51,34,28,21,49,29,12,29.95,29.73,5,0,0,0.00
2012-4-21,87,64,41,35,28,15,75,34,7,29.98,29.73,2,0,0,0.00
2012-4-22,90,67,42,36,29,19,72,31,8,29.98,29.72,2,0,0,0.00
2012-4-23,90,70,54,41,36,29,55,32,12,29.94,29.64,5,0,0,0.00
2012-4-24,91,69,46,37,32,24,67,33,10,29.86,29.56,6,0,0,0.00
2012-4-25,90,68,44,37,28,19,68,30,8,29.84,29.61,3,0,0,0.00
2012-4-26,88,66,52,44,33,21,60,35,10,29.73,29.35,12,1,0,0.00
2012-4-27,77,61,45,36,31,25,62,35,17,29.82,29.56,11,0,0,0.00
2012-4-28,77,60,42,43,30,24,69,36,15,29.75,29.57,5,0,0,0.02
2012-4-29,83,66,48,43,31,13,73,33,8,29.76,29.52,1,0,0,0.01
2012-4-30,85,64,41,32,24,18,62,26,9,29.83,29.55,3,0,0,0.00
2012-5-1,86,67,43,36,26,17,61,26,9,29.72,29.41,6,0,0,0.00
2012-5-2,86,67,45,33,26,16,56,26,9,29.70,29.48,2,0,0,0.00
2012-5-3,87,67,44,35,26,20,61,26,9,29.81,29.53,1,0,0,0.00
2012-5-4,89,67,44,36,27,17,69,29,7,29.85,29.57,1,0,0,0.00
2012-5-5,89,68,43,39,24,12,64,27,7,29.80,29.50,2,0,0,0.00
2012-5-6,86,67,44,35,25,17,62,25,8,29.78,29.54,4,0,0,0.00
2012-5-7,71,64,52,43,38,32,56,40,27,29.82,29.52,10,2,0,0.00
2012-5-8,70,58,48,41,37,33,63,47,28,29.94,29.77,5,0,0,0.00
2012-5-9,79,62,46,43,39,30,80,48,19,30.02,29.64,2,0,0,0.00
2012-5-10,84,64,45,44,39,32,82,46,17,29.80,29.43,6,0,0,0.00
2012-5-11,86,64,51,52,43,37,73,50,20,29.89,29.52,4,0,0,0.08
2012-5-12,78,61,47,47,42,31,86,53,25,30.07,29.83,6,0,0,0.03
2012-5-13,72,60,50,47,41,33,74,53,28,30.04,29.89,5,0,0,0.00
2012-5-14,78,61,42,43,38,34,85,48,23,30.11,29.89,4,0,0,0.00
2012-5-15,84,65,43,44,35,19,84,41,14,30.06,29.81,0,0,0,0.00
2012-5-16,84,69,45,39,30,21,63,27,10,29.98,29.62,0,0,0,0.00
2012-5-17,91,74,52,38,24,10,56,19,6,29.75,29.39,6,0,0,0.00
2012-5-18,86,71,50,38,23,11,46,18,7,29.57,29.30,8,0,0,0.00
2012-5-19,87,70,49,34,22,8,47,19,8,29.68,29.45,5,0,0,0.00
2012-5-20,88,70,49,42,36,28,55,32,13,29.91,29.68,2,0,0,0.00
2012-5-21,94,75,54,52,43,32,82,38,11,29.93,29.59,4,0,0,0.00
2012-5-22,95,76,59,51,34,9,66,29,5,29.70,29.35,3,0,0,0.00
2012-5-23,94,77,51,40,18,7,48,15,4,29.47,29.11,8,1,0,0.00
2012-5-24,90,76,62,35,28,19,29,18,10,29.35,29.19,7,0,0,0.00
2012-5-25,91,73,49,43,28,16,61,25,7,29.50,29.35,7,0,0,0.00
2012-5-26,90,72,47,37,25,14,59,22,7,29.59,29.37,7,1,0,0.00
2012-5-27,79,64,46,22,7,-9,36,13,3,29.72,29.50,7,0,0,0.00
2012-5-28,85,63,38,31,20,10,58,24,6,29.89,29.65,1,0,0,0.00
2012-5-29,93,68,41,32,22,11,60,25,5,29.88,29.57,1,0,0,0.00
2012-5-30,91,74,45,37,15,-1,59,17,4,29.76,29.49,9,0,0,0.00
2012-5-31,94,74,54,43,31,11,45,22,7,29.68,29.49,2,0,0,0.00
2012-6-1,98,78,56,51,40,24,64,31,8,29.71,29.42,2,0,0,0.00
2012-6-2,98,80,58,50,31,10,56,23,5,29.60,29.37,11,0,0,0.00
2012-6-3,99,76,50,43,29,16,62,22,5,29.65,29.49,7,0,0,0.00
2012-6-4,93,76,62,45,38,32,46,27,13,29.68,29.48,12,0,0,0.00
2012-6-5,92,73,53,49,43,34,73,40,13,29.78,29.43,0,0,0,0.00
2012-6-6,96,76,56,53,39,25,75,33,8,29.62,29.37,2,0,0,0.00
2012-6-7,97,73,49,49,35,21,69,32,7,29.71,29.46,3,0,0,0.00
2012-6-8,98,75,51,52,35,20,69,30,7,29.72,29.40,2,0,0,0.00
2012-6-9,97,76,49,38,21,6,48,17,4,29.62,29.29,6,1,0,0.00
2012-6-10,94,79,56,35,24,13,30,14,8,29.53,29.37,6,0,0,0.00
2012-6-11,95,74,50,40,31,21,56,25,7,29.78,29.54,2,0,0,0.00
2012-6-12,96,80,63,48,40,32,48,26,11,29.79,29.49,5,0,0,0.00
2012-6-13,99,81,59,54,37,23,70,26,7,29.65,29.38,1,0,0,0.00
2012-6-14,98,76,51,46,29,12,60,25,5,29.61,29.40,4,0,0,0.00
2012-6-15,97,76,51,42,31,18,64,25,6,29.65,29.43,0,0,0,0.00
2012-6-16,94,77,64,52,42,31,56,31,12,29.79,29.51,5,0,0,0.00
2012-6-17,98,79,59,51,38,17,65,31,6,29.81,29.42,11,0,0,0.00
2012-6-18,99,79,54,46,25,9,53,20,4,29.58,29.31,6,1,0,0.00
2012-6-19,99,82,62,41,26,13,39,15,6,29.48,29.26,2,0,0,0.00
2012-6-20,102,79,53,42,26,9,49,19,4,29.57,29.36,1,0,0,0.00
2012-6-21,96,83,68,54,48,25,46,31,17,29.71,29.47,12,1,0,0.00
2012-6-22,100,81,61,53,46,37,66,33,11,29.72,29.44,2,0,0,0.00
2012-6-23,102,82,60,55,46,37,71,34,11,29.60,29.43,2,0,0,0.00
2012-6-24,103,83,59,49,40,22,65,27,8,29.73,29.51,6,0,0,0.00
2012-6-25,102,82,62,45,38,26,47,24,7,29.73,29.51,1,0,0,0.00
2012-6-26,102,82,58,49,39,30,56,26,8,29.70,29.43,3,0,0,0.00
2012-6-27,103,82,61,54,41,27,63,29,7,29.71,29.50,6,0,0,0.00
2012-6-28,103,85,62,52,42,35,58,25,10,29.79,29.55,6,0,0,0.00
2012-6-29,103,87,74,53,41,33,44,22,10,29.69,29.42,3,0,0,0.00
2012-6-30,105,84,61,51,41,29,53,25,7,29.62,29.39,0,0,0,0.00
2012-7-1,103,83,62,53,46,37,64,30,12,29.61,29.40,5,0,0,0.00
2012-7-2,102,83,66,59,49,42,68,36,13,29.64,29.38,6,0,0,0.02
2012-7-3,97,81,62,58,52,44,80,41,16,29.65,29.41,6,0,0,0.01
2012-7-4,97,79,65,59,54,45,65,45,19,29.63,29.39,6,0,0,0.00
2012-7-5,92,73,62,61,57,50,89,63,25,29.80,29.52,2,0,0,0.73
2012-7-6,87,73,62,61,57,50,90,61,28,29.87,29.65,0,0,0,0.00
2012-7-7,88,71,62,62,57,52,84,63,29,29.91,29.73,3,0,0,0.03
2012-7-8,94,77,62,59,53,43,82,49,17,29.93,29.68,3,0,0,0.00
2012-7-9,95,77,64,62,54,49,73,47,21,29.82,29.61,3,0,0,0.01
2012-7-10,90,77,66,59,54,48,75,48,25,29.90,29.68,5,0,0,0.00
2012-7-11,93,78,66,58,54,49,70,47,24,29.85,29.61,1,0,0,0.00
2012-7-12,97,78,62,59,54,46,82,50,18,29.84,29.58,1,0,0,0.00
2012-7-13,95,80,63,60,53,46,83,45,19,29.82,29.58,1,0,0,0.00
2012-7-14,96,81,66,57,48,40,64,34,16,29.78,29.59,4,0,0,0.00
2012-7-15,97,80,61,55,47,39,70,36,14,29.78,29.53,6,0,0,0.00
2012-7-16,97,78,62,54,49,41,69,39,15,29.71,29.48,6,0,0,0.00
2012-7-17,96,78,63,56,49,39,70,41,16,29.70,29.51,3,0,0,0.00
2012-7-18,100,79,63,58,51,43,70,40,15,29.72,29.54,8,0,0,0.00
2012-7-19,97,80,63,58,52,43,81,43,17,29.85,29.66,3,0,0,0.00
2012-7-20,98,81,62,55,49,41,73,37,15,29.86,29.64,2,0,0,0.00
2012-7-21,98,82,63,58,51,41,73,38,17,29.85,29.62,1,0,0,0.00
2012-7-22,94,77,64,57,51,45,68,44,19,29.81,29.66,2,0,0,0.00
2012-7-23,99,75,60,62,53,42,80,52,14,29.85,29.61,1,0,0,0.06
2012-7-24,94,76,60,59,55,48,87,54,22,29.86,29.56,7,0,0,0.00
2012-7-25,95,78,64,58,52,39,75,44,14,29.72,29.45,8,0,0,0.00
2012-7-26,99,76,65,64,55,47,82,52,18,29.77,29.52,1,0,0,0.75
2012-7-27,95,79,62,59,52,42,82,46,16,29.85,29.63,2,0,0,0.00
2012-7-28,96,80,64,58,55,50,78,45,22,29.84,29.62,1,0,0,0.00
2012-7-29,96,80,66,60,54,44,77,45,17,29.85,29.61,1,0,0,0.00
2012-7-30,100,79,62,59,53,44,71,45,16,29.82,29.57,0,0,0,0.00
2012-7-31,102,82,65,58,49,41,66,36,13,29.79,29.52,3,0,0,0.00
2012-8-1,98,81,64,55,49,43,69,37,15,29.80,29.56,5,0,0,0.00
2012-8-2,98,79,62,58,52,43,76,44,16,29.76,29.53,12,0,0,0.04
2012-8-3,97,76,63,58,53,47,78,48,19,29.73,29.49,9,0,0,0.02
2012-8-4,98,78,60,55,51,45,77,43,17,29.77,29.57,1,0,0,0.00
2012-8-5,92,79,67,58,53,49,66,44,24,29.92,29.75,6,0,0,0.00
2012-8-6,95,78,63,60,55,46,86,49,19,29.96,29.70,8,0,0,0.06
2012-8-7,101,79,62,62,53,45,78,47,15,29.85,29.57,10,0,0,0.14
2012-8-8,98,79,63,61,53,45,80,47,16,29.88,29.67,1,0,0,0.00
2012-8-9,101,80,60,54,46,38,61,35,12,29.94,29.63,0,0,0,0.00
2012-8-10,101,78,59,56,47,37,69,39,11,29.88,29.60,2,0,0,0.00
2012-8-11,101,81,60,54,46,40,71,35,13,29.82,29.55,2,0,0,0.00
2012-8-12,102,78,61,61,49,42,68,42,13,29.86,29.56,3,0,0,0.06
2012-8-13,96,77,64,57,52,44,74,46,18,29.94,29.59,3,0,0,0.00
2012-8-14,94,79,62,56,51,42,75,43,19,29.76,29.52,7,0,0,0.00
2012-8-15,97,77,58,58,51,42,81,46,16,29.70,29.45,0,0,0,0.00
2012-8-16,96,76,61,58,52,48,74,47,20,29.82,29.53,5,0,0,0.00
2012-8-17,92,76,63,60,55,44,83,52,23,29.86,29.55,2,0,0,0.02
2012-8-18,96,75,57,59,52,40,86,51,17,29.79,29.50,2,0,0,0.00
2012-8-19,94,80,66,57,53,46,67,41,21,29.74,29.51,1,0,0,0.00
2012-8-20,90,73,64,59,56,52,78,58,28,29.77,29.58,1,0,0,0.00
2012-8-21,94,75,59,58,53,40,88,53,16,29.82,29.59,4,0,0,0.00
2012-8-22,82,72,64,59,55,50,72,56,41,29.76,29.65,5,0,0,0.00
2012-8-23,87,71,59,59,55,48,87,59,31,29.77,29.60,5,0,0,0.00
2012-8-24,85,71,61,58,54,47,84,58,28,29.71,29.52,2,0,0,0.01
2012-8-25,98,76,57,57,49,40,87,47,15,29.68,29.47,5,0,0,0.00
2012-8-26,97,78,63,58,50,44,73,41,18,29.77,29.58,10,0,0,0.00
2012-8-27,97,80,61,57,45,32,73,35,12,29.93,29.69,2,0,0,0.00
2012-8-28,98,76,56,49,44,37,65,36,13,29.97,29.67,0,0,0,0.00
2012-8-29,97,76,54,51,43,31,70,36,13,29.89,29.57,0,0,0,0.00
2012-8-30,97,75,54,49,41,28,68,33,13,29.81,29.54,2,0,0,0.00
2012-8-31,96,74,53,51,40,31,63,33,12,29.87,29.60,0,0,0,0.00
2012-9-1,99,76,55,51,44,38,64,37,12,29.89,29.61,3,0,0,0.00
2012-9-2,100,79,59,52,47,40,71,37,13,29.83,29.55,3,0,0,0.00
2012-9-3,96,83,66,53,45,38,61,28,14,29.73,29.52,6,0,0,0.00
2012-9-4,97,80,64,55,46,35,66,35,13,29.74,29.54,0,0,0,0.00
2012-9-5,88,76,67,58,47,33,56,38,22,29.74,29.55,1,0,0,0.00
2012-9-6,98,76,58,58,50,46,70,44,18,29.79,29.53,2,0,0,0.06
2012-9-7,94,75,62,60,53,43,81,52,17,29.84,29.55,5,0,0,0.40
2012-9-8,79,66,57,49,46,42,72,49,27,30.06,29.81,1,0,0,0.00
2012-9-9,84,66,51,53,48,44,84,58,26,30.09,29.86,2,0,0,0.00
2012-9-10,86,70,57,55,53,49,86,57,29,29.93,29.68,1,0,0,0.00
2012-9-11,87,68,56,62,53,48,88,63,27,29.81,29.63,8,0,0,0.11
2012-9-12,75,64,59,60,57,48,93,79,49,29.92,29.68,3,0,0,0.02
2012-9-13,73,62,55,53,48,42,88,63,35,30.19,29.90,2,0,0,0.05
2012-9-14,77,60,47,47,43,36,87,58,25,30.28,30.05,0,0,0,0.00
2012-9-15,83,62,43,47,40,34,86,51,17,30.18,29.85,1,0,0,0.00
2012-9-16,90,66,44,44,34,16,85,43,7,30.02,29.69,2,0,0,0.00
2012-9-17,88,66,46,42,34,22,75,38,9,29.87,29.63,5,0,0,0.00
2012-9-18,86,62,46,43,40,33,83,50,15,30.05,29.76,0,0,0,0.00
2012-9-19,91,65,43,43,35,21,83,42,10,30.07,29.76,1,0,0,0.00
2012-9-20,91,65,43,38,29,16,69,35,7,30.03,29.73,4,0,0,0.00
2012-9-21,91,65,45,46,33,21,62,37,8,29.99,29.73,0,0,0,0.00
2012-9-22,94,68,45,43,35,27,66,37,9,30.05,29.78,1,0,0,0.00
2012-9-23,92,68,48,46,39,33,73,42,12,30.04,29.79,2,0,0,0.00
2012-9-24,86,66,49,46,39,-100,74,44,16,29.93,29.66,9,-10,0,0.00
2012-9-25,81,64,51,49,44,-100,83,55,25,29.82,29.62,3,0,0,0.01
2012-9-26,83,64,48,48,44,38,83,54,21,29.88,29.67,1,0,0,0.00
2012-9-27,86,66,48,49,44,36,81,49,18,29.97,29.71,0,0,0,0.00
2012-9-28,81,67,56,51,48,41,80,53,28,29.90,29.68,1,0,0,0.00
2012-9-29,84,67,54,50,47,38,76,52,20,29.94,29.68,1,0,0,0.00
2012-9-30,85,65,46,44,37,22,85,44,14,29.96,29.70,2,0,0,0.00
2012-10-1,86,64,47,43,38,30,76,45,14,30.00,29.76,1,0,0,0.00
2012-10-2,84,63,44,44,37,23,85,47,11,29.99,29.64,3,0,0,0.00
2012-10-3,89,64,41,38,32,21,79,40,9,29.89,29.64,8,0,0,0.00
2012-10-4,88,65,45,39,33,25,69,37,11,30.02,29.71,6,0,0,0.00
2012-10-5,86,68,47,40,30,21,68,30,11,29.93,29.61,2,0,0,0.00
2012-10-6,81,64,50,39,34,20,56,36,13,29.84,29.55,5,0,0,0.00
2012-10-7,74,54,42,38,34,30,69,50,21,30.00,29.75,1,0,0,0.00
2012-10-8,81,55,37,40,30,21,67,42,13,30.09,29.70,0,0,0,0.00
2012-10-9,84,60,40,37,32,26,72,40,12,29.97,29.70,0,0,0,0.00
2012-10-10,83,59,42,42,34,25,69,43,16,30.03,29.75,0,0,0,0.00
2012-10-11,82,57,43,45,38,32,73,53,21,29.96,29.75,2,0,0,0.00
2012-10-12,78,62,50,54,40,24,89,49,19,29.86,29.60,12,1,0,0.08
2012-10-13,67,53,38,36,31,-100,84,47,24,30.02,29.78,9,-10,0,0.00
2012-10-14,53,8,41,37,-77,-100,81,12,53,30.17,29.93,0,-829,0,0.00
2012-10-15,81,20,47,39,-55,-100,65,14,15,30.02,29.58,1,-670,0,0.00
2012-10-16,84,58,38,38,32,21,82,46,10,29.98,29.54,2,0,0,0.00
2012-10-17,78,61,42,35,20,-4,60,28,5,29.80,29.56,10,1,0,0.00
2012-10-18,79,58,37,21,12,2,40,19,9,29.95,29.74,5,0,0,0.00
2012-10-19,82,56,39,38,24,15,67,34,11,30.00,29.70,0,0,0,0.00
2012-10-20,83,19,42,38,-66,-100,68,7,11,29.90,29.35,0,-738,0,0.00
2012-10-21,80,37,50,38,-27,-100,59,16,15,29.76,29.41,1,-455,0,0.00
2012-10-22,79,57,39,38,34,30,81,47,17,29.89,29.62,0,0,0,0.00
2012-10-23,81,57,37,39,33,26,81,47,13,29.94,29.63,1,0,0,0.00
2012-10-24,82,62,43,36,28,17,70,35,10,29.81,29.44,10,0,0,0.00
2012-10-25,67,52,36,25,16,8,56,28,12,30.02,29.62,8,0,0,0.00
2012-10-26,60,45,34,25,20,14,61,40,17,30.30,30.02,7,0,0,0.00
2012-10-27,63,42,25,27,21,18,78,49,18,30.28,29.98,2,0,0,0.00
2012-10-28,71,46,28,28,21,14,74,44,12,30.24,29.95,1,0,0,0.00
2012-10-29,78,51,29,29,21,11,80,42,9,30.27,29.91,2,0,0,0.00
2012-10-30,78,49,30,27,20,12,73,39,10,30.18,29.86,1,0,0,0.00
2012-10-31,77,50,30,28,21,15,73,40,11,30.17,29.88,2,0,0,0.00
2012-11-1,76,49,30,26,19,12,60,36,11,30.19,29.82,0,0,0,0.00
2012-11-2,76,50,29,30,20,11,60,36,11,30.11,29.80,1,0,0,0.00
2012-11-3,73,50,33,31,26,22,75,46,15,30.14,29.83,0,0,0,0.00
2012-11-4,74,48,28,27,17,7,73,38,8,30.30,30.00,2,0,0,0.00
2012-11-5,73,49,30,28,20,12,66,37,12,30.29,30.01,3,0,0,0.00
2012-11-6,77,50,32,31,25,21,70,45,14,30.26,29.96,0,0,0,0.00
2012-11-7,76,49,29,29,23,17,67,42,13,30.25,29.86,0,0,0,0.00
2012-11-8,47,34,30,25,22,16,74,62,30,30.08,29.87,0,0,0,0.00
2012-11-13,45,35,28,12,9,7,51,35,21,30.34,30.25,0,0,0,0.00
2012-11-14,63,37,20,17,11,7,62,39,13,30.49,30.11,2,0,0,0.00
2012-11-15,62,40,24,17,10,5,55,34,12,30.38,30.14,0,0,0,0.00
2012-11-16,65,45,32,23,19,15,57,39,15,30.33,30.04,2,0,0,0.00
2012-11-17,60,42,26,26,18,13,60,41,20,30.31,30.04,0,0,0,0.00
2012-11-18,65,46,35,40,32,21,86,61,32,30.16,29.90,3,0,0,0.03
2012-11-19,66,43,29,29,26,20,86,57,23,30.33,30.09,1,0,0,0.00
2012-11-20,67,41,24,21,18,15,72,45,15,30.43,30.09,0,0,0,0.00
2012-11-21,61,45,28,25,19,11,63,39,19,30.27,30.00,1,0,0,0.00
2012-11-22,66,42,25,25,22,17,76,49,20,30.28,30.04,0,0,0,0.00
2012-11-23,62,41,26,26,21,17,80,49,22,30.54,30.17,4,0,0,0.00
2012-11-24,63,38,22,25,18,14,74,50,20,30.48,30.04,2,0,0,0.00
2012-11-25,66,40,21,20,16,12,77,46,14,30.23,29.83,5,0,0,0.00
2012-11-26,64,40,22,21,16,12,73,43,16,30.28,29.91,1,0,0,0.00
2012-11-27,60,40,26,24,20,18,73,50,21,30.47,30.16,1,0,0,0.00
2012-11-28,65,39,21,23,16,11,71,45,17,30.49,30.11,1,0,0,0.00
2012-11-29,66,42,24,25,20,14,71,45,19,30.29,30.02,2,0,0,0.00
2012-11-30,65,41,25,29,24,20,83,56,23,30.27,29.98,1,0,0,0.00
2012-12-1,70,33,27,24,-15,-100,82,31,17,30.20,29.71,1,-311,0,0.00
2012-12-2,67,40,26,23,19,14,75,48,15,30.23,29.88,1,0,0,0.00
2012-12-3,66,47,29,32,25,16,67,44,23,30.12,29.89,6,0,0,0.00
2012-12-4,61,33,28,30,1,-100,84,47,22,30.39,30.03,0,-193,0,0.00
2012-12-5,65,42,28,24,21,19,74,49,17,30.38,29.93,0,0,0,0.00
2012-12-6,63,42,25,25,20,17,76,47,19,30.07,29.75,1,0,0,0.00
2012-12-7,65,45,28,29,24,21,77,49,24,29.96,29.69,6,0,0,0.00
2012-12-8,34,6,25,23,-73,-100,80,17,66,29.96,29.56,0,-778,0,0.00
2012-12-9,-200,0,200,-100,-100,-100,0,0,100,29.93,29.52,0,-999,0,0.00
2012-12-10,-200,0,200,-100,-100,-100,0,0,100,29.95,29.72,0,-999,0,0.00
2012-12-11,-200,0,200,-100,-100,-100,0,0,100,29.86,29.75,0,-999,0,0.00
2012-12-12,59,14,22,15,-56,-100,52,14,13,30.27,29.73,3,-588,0,0.00
2012-12-13,58,32,17,16,8,2,55,39,17,30.32,29.85,2,0,0,0.00
2012-12-14,48,40,32,37,25,14,86,57,35,29.99,29.59,4,1,0,0.06
2012-12-15,46,37,28,32,25,21,85,64,44,30.00,29.79,4,0,0,0.03
2012-12-16,45,32,24,29,22,16,89,67,41,30.14,29.85,7,0,0,0.00
2012-12-17,48,30,16,23,19,11,85,65,35,30.24,29.98,3,0,0,0.00
2012-12-18,49,32,18,27,22,14,86,67,40,30.12,29.65,1,0,0,0.00
2012-12-19,42,33,21,33,17,4,81,55,28,30.38,29.51,14,2,0,0.02
2012-12-20,42,25,13,7,3,-1,67,43,17,30.70,30.39,5,0,0,0.00
2012-12-21,48,26,13,8,3,-1,67,42,15,30.61,30.26,3,0,0,0.00
2012-12-22,50,28,16,12,6,3,63,42,15,30.45,30.13,5,0,0,0.00
2012-12-23,56,31,14,17,12,7,79,49,19,30.35,30.00,2,0,0,0.00
2012-12-24,54,37,21,28,18,12,72,50,22,30.07,29.62,6,0,0,0.00
2012-12-25,43,33,25,23,13,9,63,44,28,30.17,29.66,8,1,0,0.00
2012-12-26,44,30,21,16,13,11,69,53,30,30.16,29.78,6,0,0,0.00
2012-12-27,43,30,20,19,14,10,77,53,27,29.94,29.73,3,0,0,0.00
2012-12-28,39,28,18,16,12,6,74,53,30,30.32,29.93,8,1,0,0.00
2012-12-29,42,22,9,9,5,2,76,52,21,30.53,30.21,1,0,0,0.00
2012-12-30,43,31,19,16,9,3,56,40,27,30.20,29.84,2,0,0,0.00
2012-12-31,46,34,25,28,18,9,84,55,26,30.07,29.79,5,1,0,0.01
2013-1-1,39,26,15,18,11,8,78,57,33,30.38,30.07,7,1,0,0.00